createdAt,value
2017-07-19T00:00:47.235Z,0
2017-07-19T00:03:11.921Z,0
2017-07-19T00:05:36.630Z,0
2017-07-19T00:10:11.420Z,0
2017-07-19T00:12:36.013Z,0
2017-07-19T00:15:00.619Z,0
2017-07-19T00:17:16.731Z,0
2017-07-19T00:19:41.247Z,0
2017-07-19T00:22:05.819Z,0
2017-07-19T00:24:30.323Z,0
2017-07-19T00:26:54.926Z,0
2017-07-19T00:29:11.047Z,0
2017-07-19T00:31:27.237Z,0
2017-07-19T00:33:51.808Z,0
2017-07-19T00:36:16.407Z,0
2017-07-19T00:38:32.518Z,0
2017-07-19T00:42:58.619Z,0
2017-07-19T00:45:23.154Z,0
2017-07-19T00:47:47.687Z,0
2017-07-19T00:50:12.236Z,0
2017-07-19T00:52:36.790Z,0
2017-07-19T00:55:01.347Z,0
2017-07-19T00:57:25.890Z,0
2017-07-19T00:59:50.521Z,0
2017-07-19T01:02:06.725Z,0
2017-07-19T01:04:31.389Z,0
2017-07-19T01:06:55.985Z,0
2017-07-19T01:09:20.478Z,0
2017-07-19T01:11:45.017Z,0
2017-07-19T01:14:01.191Z,0
2017-07-19T01:16:17.403Z,0
2017-07-19T01:18:42.056Z,0
2017-07-19T01:21:06.553Z,0
2017-07-19T01:23:22.679Z,0
2017-07-19T01:25:47.335Z,0
2017-07-19T01:28:11.944Z,0
2017-07-19T01:30:36.535Z,0
2017-07-19T01:32:51.017Z,0
2017-07-19T01:35:09.757Z,0
2017-07-19T01:37:25.870Z,0
2017-07-19T01:39:50.416Z,0
2017-07-19T01:42:15.004Z,0
2017-07-19T01:46:33.152Z,0
2017-07-19T01:48:57.616Z,0
2017-07-19T01:53:15.079Z,0
2017-07-19T01:57:15.390Z,0
2017-07-19T01:59:31.422Z,0
2017-07-19T02:03:48.905Z,0
2017-07-19T02:05:56.550Z,0
2017-07-19T02:08:12.595Z,0
2017-07-19T02:10:36.986Z,0
2017-07-19T02:12:36.108Z,0
2017-07-19T02:15:00.624Z,0
2017-07-19T02:17:16.576Z,0
2017-07-19T02:19:40.999Z,0
2017-07-19T02:22:05.510Z,0
2017-07-19T02:24:29.990Z,0
2017-07-19T02:26:54.490Z,0
2017-07-19T02:29:18.984Z,0
2017-07-19T02:31:43.485Z,0
2017-07-19T02:34:07.961Z,0
2017-07-19T02:36:32.463Z,0
2017-07-19T02:38:56.923Z,0
2017-07-19T02:41:21.429Z,0
2017-07-19T02:43:45.923Z,0
2017-07-19T02:45:54.489Z,0
2017-07-19T02:48:19.037Z,0
2017-07-19T02:50:43.523Z,0
2017-07-19T02:53:08.014Z,0
2017-07-19T02:55:32.530Z,0
2017-07-19T02:57:40.087Z,0
2017-07-19T03:00:04.611Z,0
2017-07-19T03:02:29.087Z,0
2017-07-19T03:04:53.574Z,0
2017-07-19T03:07:18.077Z,0
2017-07-19T03:09:42.507Z,0
2017-07-19T03:11:58.597Z,0
2017-07-19T03:14:14.518Z,0
2017-07-19T03:16:30.579Z,0
2017-07-19T03:21:05.069Z,0
2017-07-19T03:23:29.504Z,0
2017-07-19T03:25:53.919Z,0
2017-07-19T03:28:18.355Z,0
2017-07-19T03:30:42.846Z,0
2017-07-19T03:33:07.343Z,0
2017-07-19T03:35:23.363Z,0
2017-07-19T03:37:47.826Z,0
2017-07-19T03:40:12.328Z,0
2017-07-19T03:42:36.810Z,0
2017-07-19T03:45:01.300Z,0
2017-07-19T03:47:25.793Z,0
2017-07-19T03:49:50.190Z,0
2017-07-19T03:52:14.676Z,0
2017-07-19T03:54:30.707Z,0
2017-07-19T03:56:46.816Z,5
2017-07-19T03:59:11.224Z,5
2017-07-19T04:01:35.649Z,5
2017-07-19T04:04:00.143Z,5
2017-07-19T04:06:24.626Z,5
2017-07-19T04:08:49.114Z,10
2017-07-19T04:11:13.512Z,10
2017-07-19T04:13:29.539Z,10
2017-07-19T04:15:54.092Z,10
2017-07-19T04:18:18.576Z,15
2017-07-19T04:20:34.616Z,15
2017-07-19T04:22:59.073Z,20
2017-07-19T04:25:23.486Z,20
2017-07-19T04:27:39.485Z,25
2017-07-19T04:29:55.545Z,25
2017-07-19T04:32:11.589Z,30
2017-07-19T04:34:36.137Z,35
2017-07-19T04:36:52.241Z,40
2017-07-19T04:39:16.844Z,45
2017-07-19T04:41:41.439Z,55
2017-07-19T04:44:06.036Z,65
2017-07-19T04:46:30.661Z,65
2017-07-19T04:48:38.439Z,70
2017-07-19T04:51:03.321Z,80
2017-07-19T04:53:28.258Z,85
2017-07-19T04:55:53.286Z,90
2017-07-19T04:58:18.414Z,100
2017-07-19T05:00:43.677Z,110
2017-07-19T05:03:00.601Z,115
2017-07-19T05:05:17.530Z,120
2017-07-19T05:07:43.113Z,125
2017-07-19T05:10:08.770Z,130
2017-07-19T05:12:34.578Z,135
2017-07-19T05:15:00.513Z,145
2017-07-19T05:17:26.532Z,150
2017-07-19T05:19:52.617Z,160
2017-07-19T05:22:10.281Z,175
2017-07-19T05:24:36.595Z,180
2017-07-19T05:27:03.066Z,190
2017-07-19T05:29:29.639Z,195
2017-07-19T05:31:56.196Z,200
2017-07-19T05:34:22.861Z,210
2017-07-19T05:36:41.051Z,225
2017-07-19T05:40:52.798Z,250
2017-07-19T05:43:19.687Z,265
2017-07-19T05:47:14.575Z,325
2017-07-19T05:49:33.004Z,805
2017-07-19T05:52:00.095Z,1090
2017-07-19T05:54:27.274Z,1015
2017-07-19T05:56:54.569Z,1095
2017-07-19T05:59:21.948Z,1145
2017-07-19T06:01:40.782Z,1135
2017-07-19T06:04:09.332Z,1270
2017-07-19T06:06:19.537Z,1215
2017-07-19T06:08:38.463Z,1170
2017-07-19T06:11:06.167Z,1190
2017-07-19T06:13:34.851Z,1275
2017-07-19T06:16:02.529Z,1260
2017-07-19T06:18:30.313Z,1285
2017-07-19T06:20:58.211Z,1280
2017-07-19T06:23:26.010Z,1410
2017-07-19T06:25:53.850Z,1285
2017-07-19T06:28:21.864Z,1330
2017-07-19T06:30:49.830Z,1340
2017-07-19T06:33:09.255Z,1275
2017-07-19T06:35:37.429Z,760
2017-07-19T06:38:05.477Z,505
2017-07-19T06:40:33.532Z,505
2017-07-19T06:43:01.722Z,520
2017-07-19T06:45:29.838Z,540
2017-07-19T06:47:58.153Z,560
2017-07-19T06:50:26.440Z,600
2017-07-19T06:52:37.454Z,1280
2017-07-19T06:55:05.814Z,1460
2017-07-19T06:57:34.143Z,1470
2017-07-19T07:00:02.591Z,1005
2017-07-19T07:02:30.861Z,550
2017-07-19T07:04:59.104Z,555
2017-07-19T07:07:27.249Z,560
2017-07-19T07:09:55.418Z,605
2017-07-19T07:12:23.709Z,640
2017-07-19T07:14:59.224Z,630
2017-07-19T07:17:26.646Z,615
2017-07-19T07:19:53.887Z,605
2017-07-19T07:22:21.099Z,575
2017-07-19T07:24:48.195Z,530
2017-07-19T07:27:15.132Z,480
2017-07-19T07:29:42.023Z,475
2017-07-19T07:32:09.676Z,520
2017-07-19T07:34:37.868Z,570
2017-07-19T07:37:05.892Z,610
2017-07-19T07:39:35.105Z,570
2017-07-19T07:42:02.110Z,530
2017-07-19T07:44:29.010Z,520
2017-07-19T07:46:46.973Z,520
2017-07-19T07:49:13.549Z,505
2017-07-19T07:51:40.280Z,495
2017-07-19T07:54:06.986Z,485
2017-07-19T07:56:34.048Z,475
2017-07-19T07:59:00.557Z,470
2017-07-19T08:01:27.344Z,460
2017-07-19T08:03:45.446Z,450
2017-07-19T08:06:12.198Z,460
2017-07-19T08:08:39.234Z,455
2017-07-19T08:11:05.959Z,455
2017-07-19T08:13:32.801Z,470
2017-07-19T08:16:00.169Z,465
2017-07-19T08:18:27.341Z,480
2017-07-19T08:22:57.196Z,485
2017-07-19T08:25:15.545Z,520
2017-07-19T08:29:58.031Z,505
2017-07-19T08:32:25.052Z,500
2017-07-19T08:34:52.120Z,495
2017-07-19T08:37:19.148Z,485
2017-07-19T08:39:46.157Z,440
2017-07-19T08:42:13.314Z,415
2017-07-19T08:44:48.175Z,410
2017-07-19T08:47:15.230Z,400
2017-07-19T08:49:42.567Z,395
2017-07-19T08:52:10.110Z,410
2017-07-19T08:54:37.048Z,405
2017-07-19T08:57:04.053Z,410
2017-07-19T08:59:31.046Z,410
2017-07-19T09:01:58.070Z,395
2017-07-19T09:04:27.177Z,390
2017-07-19T09:06:54.045Z,390
2017-07-19T09:09:20.966Z,390
2017-07-19T09:11:47.981Z,395
2017-07-19T09:15:57.697Z,380
2017-07-19T09:20:37.554Z,365
2017-07-19T09:23:04.494Z,360
2017-07-19T09:25:31.214Z,350
2017-07-19T09:27:58.023Z,345
2017-07-19T09:30:25.712Z,335
2017-07-19T09:32:52.379Z,320
2017-07-19T09:35:19.074Z,310
2017-07-19T09:37:45.774Z,305
2017-07-19T09:40:12.541Z,295
2017-07-19T09:42:39.201Z,290
2017-07-19T09:45:05.799Z,285
2017-07-19T09:47:32.598Z,285
2017-07-19T09:50:00.358Z,270
2017-07-19T09:52:34.694Z,270
2017-07-19T09:55:01.325Z,270
2017-07-19T09:57:27.724Z,260
2017-07-19T09:59:54.342Z,255
2017-07-19T10:02:20.711Z,250
2017-07-19T10:04:47.197Z,245
2017-07-19T10:07:14.070Z,235
2017-07-19T10:09:41.529Z,225
2017-07-19T10:12:08.861Z,225
2017-07-19T10:14:35.087Z,220
2017-07-19T10:17:02.315Z,205
2017-07-19T10:19:28.492Z,200
2017-07-19T10:21:54.681Z,200
2017-07-19T10:24:20.836Z,185
2017-07-19T10:26:47.033Z,190
2017-07-19T10:31:15.549Z,175
2017-07-19T10:33:33.101Z,175
2017-07-19T10:35:59.190Z,170
2017-07-19T10:38:25.234Z,170
2017-07-19T10:40:51.241Z,165
2017-07-19T10:43:17.207Z,165
2017-07-19T10:45:43.125Z,165
2017-07-19T10:48:09.154Z,165
2017-07-19T10:50:35.189Z,165
2017-07-19T10:53:01.173Z,160
2017-07-19T10:55:27.157Z,160
2017-07-19T10:57:53.142Z,155
2017-07-19T11:00:20.100Z,155
2017-07-19T11:02:46.054Z,150
2017-07-19T11:05:11.869Z,150
2017-07-19T11:07:37.724Z,145
2017-07-19T11:10:03.557Z,145
2017-07-19T11:12:29.443Z,140
2017-07-19T11:14:55.337Z,140
2017-07-19T11:17:21.186Z,140
2017-07-19T11:19:47.043Z,130
2017-07-19T11:22:12.833Z,130
2017-07-19T11:24:38.665Z,125
2017-07-19T11:27:04.498Z,125
2017-07-19T11:29:30.347Z,120
2017-07-19T11:31:56.093Z,120
2017-07-19T11:34:21.846Z,115
2017-07-19T11:36:47.662Z,115
2017-07-19T11:39:13.678Z,115
2017-07-19T11:41:39.366Z,110
2017-07-19T11:43:56.727Z,110
2017-07-19T11:46:22.565Z,110
2017-07-19T11:48:48.307Z,110
2017-07-19T11:51:14.076Z,105
2017-07-19T11:53:39.764Z,105
2017-07-19T11:56:05.507Z,105
2017-07-19T11:58:31.199Z,105
2017-07-19T12:00:57.017Z,105
2017-07-19T12:03:22.786Z,105
2017-07-19T12:05:48.575Z,100
2017-07-19T12:08:14.406Z,105
2017-07-19T12:10:40.588Z,100
2017-07-19T12:14:42.317Z,100
2017-07-19T12:17:08.042Z,100
2017-07-19T12:19:34.037Z,100
2017-07-19T12:22:00.284Z,100
2017-07-19T12:24:26.271Z,95
2017-07-19T12:26:52.098Z,100
2017-07-19T12:31:34.668Z,95
2017-07-19T12:33:56.302Z,90
2017-07-19T12:36:22.232Z,95
2017-07-19T12:40:50.822Z,90
2017-07-19T12:43:16.384Z,90
2017-07-19T12:45:42.176Z,85
2017-07-19T12:48:09.376Z,85
2017-07-19T12:50:35.160Z,90
2017-07-19T12:52:52.494Z,95
2017-07-19T12:55:18.301Z,90
2017-07-19T12:57:43.895Z,90
2017-07-19T13:00:09.740Z,85
2017-07-19T13:02:35.309Z,95
2017-07-19T13:07:04.074Z,105
2017-07-19T13:09:29.935Z,100
2017-07-19T13:11:55.795Z,95
2017-07-19T13:14:12.904Z,95
2017-07-19T13:16:38.560Z,95
2017-07-19T13:19:04.202Z,95
2017-07-19T13:21:30.899Z,90
2017-07-19T13:23:56.612Z,95
2017-07-19T13:26:22.339Z,95
2017-07-19T13:28:47.959Z,100
2017-07-19T13:31:13.652Z,100
2017-07-19T13:33:39.268Z,105
2017-07-19T13:36:04.933Z,110
2017-07-19T13:38:30.505Z,110
2017-07-19T13:40:56.113Z,115
2017-07-19T13:43:22.771Z,115
2017-07-19T13:45:48.406Z,120
2017-07-19T13:48:14.056Z,125
2017-07-19T13:50:39.729Z,130
2017-07-19T13:53:05.453Z,135
2017-07-19T13:55:31.119Z,135
2017-07-19T13:57:56.795Z,135
2017-07-19T14:00:22.528Z,140
2017-07-19T14:02:48.366Z,130
2017-07-19T14:05:14.092Z,125
2017-07-19T14:07:39.903Z,120
2017-07-19T14:10:05.738Z,120
2017-07-19T14:16:09.508Z,125
2017-07-19T14:18:35.312Z,120
2017-07-19T14:21:01.095Z,115
2017-07-19T14:23:26.839Z,110
2017-07-19T14:25:52.704Z,105
2017-07-19T14:28:18.537Z,100
2017-07-19T14:30:44.431Z,95
2017-07-19T14:33:10.246Z,95
2017-07-19T14:35:36.038Z,90
2017-07-19T14:38:01.723Z,85
2017-07-19T14:40:27.413Z,85
2017-07-19T14:42:53.134Z,85
2017-07-19T14:45:18.779Z,80
2017-07-19T14:47:44.556Z,80
2017-07-19T14:50:10.139Z,80
2017-07-19T14:52:35.734Z,80
2017-07-19T14:55:01.318Z,80
2017-07-19T14:57:27.011Z,80
2017-07-19T14:59:52.595Z,80
2017-07-19T15:02:18.261Z,80
2017-07-19T15:04:43.858Z,80
2017-07-19T15:07:09.551Z,80
2017-07-19T15:09:35.198Z,80
2017-07-19T15:14:10.353Z,80
2017-07-19T15:16:49.492Z,80
2017-07-19T15:19:18.095Z,75
2017-07-19T15:21:43.707Z,75
2017-07-19T15:24:09.123Z,75
2017-07-19T15:26:34.716Z,75
2017-07-19T15:29:00.338Z,50
2017-07-19T15:31:26.880Z,75
2017-07-19T15:33:51.888Z,75
2017-07-19T15:36:17.465Z,75
2017-07-19T15:38:42.914Z,75
2017-07-19T15:41:08.647Z,70
2017-07-19T15:45:27.367Z,70
2017-07-19T15:47:52.821Z,70
2017-07-19T15:52:20.100Z,70
2017-07-19T15:54:45.709Z,70
2017-07-19T15:57:11.068Z,70
2017-07-19T15:59:36.622Z,70
2017-07-19T16:02:08.288Z,70
2017-07-19T16:04:34.116Z,70
2017-07-19T16:07:03.155Z,70
2017-07-19T16:09:28.682Z,70
2017-07-19T16:11:55.538Z,65
2017-07-19T16:14:20.813Z,65
2017-07-19T16:16:46.356Z,65
2017-07-19T16:19:11.746Z,65
2017-07-19T16:23:47.517Z,50
2017-07-19T16:26:12.987Z,55
2017-07-19T16:28:29.902Z,55
2017-07-19T16:30:55.306Z,50
2017-07-19T16:33:20.784Z,50
2017-07-19T16:35:47.647Z,60
2017-07-19T16:38:13.842Z,60
2017-07-19T16:40:40.488Z,60
2017-07-19T16:43:05.946Z,60
2017-07-19T16:45:31.451Z,55
2017-07-19T16:47:48.448Z,55
2017-07-19T16:50:13.852Z,45
2017-07-19T16:52:22.353Z,35
2017-07-19T16:54:47.810Z,40
2017-07-19T16:57:20.857Z,40
2017-07-19T16:59:46.549Z,40
2017-07-19T17:02:15.030Z,40
2017-07-19T17:05:17.059Z,40
2017-07-19T17:09:27.752Z,35
2017-07-19T17:13:59.169Z,35
2017-07-19T17:16:27.110Z,35
2017-07-19T17:21:17.280Z,30
2017-07-19T17:27:53.171Z,30
2017-07-19T17:30:18.467Z,30
2017-07-19T17:32:43.870Z,30
2017-07-19T17:35:09.274Z,30
2017-07-19T17:37:35.474Z,30
2017-07-19T17:40:00.986Z,30
2017-07-19T17:42:26.397Z,30
2017-07-19T17:44:51.744Z,30
2017-07-19T17:47:17.153Z,30
2017-07-19T17:49:42.475Z,30
2017-07-19T17:52:08.090Z,30
2017-07-19T17:54:33.402Z,30
2017-07-19T17:56:58.804Z,25
2017-07-19T17:59:24.376Z,25
2017-07-19T18:01:49.452Z,25
2017-07-19T18:04:06.353Z,20
2017-07-19T18:06:31.675Z,20
2017-07-19T18:08:56.963Z,15
2017-07-19T18:11:23.313Z,20
2017-07-19T18:13:48.785Z,20
2017-07-19T18:16:14.071Z,20
2017-07-19T18:18:39.334Z,15
2017-07-19T18:21:05.266Z,15
2017-07-19T18:23:30.682Z,15
2017-07-19T18:25:55.895Z,15
2017-07-19T18:28:12.951Z,15
2017-07-19T18:30:38.314Z,15
2017-07-19T18:33:03.386Z,10
2017-07-19T18:35:29.927Z,10
2017-07-19T18:37:55.229Z,10
2017-07-19T18:40:20.431Z,10
2017-07-19T18:42:45.917Z,10
2017-07-19T18:45:12.404Z,10
2017-07-19T18:47:37.741Z,10
2017-07-19T18:52:05.770Z,5
2017-07-19T18:54:32.057Z,5
2017-07-19T18:56:57.498Z,5
2017-07-19T18:59:23.529Z,5
2017-07-19T19:01:49.166Z,0
2017-07-19T19:04:14.554Z,0
2017-07-19T19:06:41.211Z,0
2017-07-19T19:09:06.493Z,0
2017-07-19T19:11:31.733Z,0
2017-07-19T19:13:56.898Z,0
2017-07-19T19:16:22.109Z,0
2017-07-19T19:18:47.127Z,0
2017-07-19T19:21:12.366Z,0
2017-07-19T19:23:37.676Z,0
2017-07-19T19:26:02.782Z,0
2017-07-19T19:30:38.029Z,0
2017-07-19T19:33:03.098Z,0
2017-07-19T19:35:28.218Z,0
2017-07-19T19:37:53.351Z,0
2017-07-19T19:40:18.407Z,0
2017-07-19T19:42:43.446Z,0
2017-07-19T19:45:08.506Z,0
2017-07-19T19:47:33.584Z,0
2017-07-19T19:49:58.701Z,0
2017-07-19T19:52:23.703Z,0
2017-07-19T19:54:48.864Z,0
2017-07-19T19:57:05.445Z,0
2017-07-19T20:01:40.688Z,0
2017-07-19T20:04:05.735Z,0
2017-07-19T20:06:13.770Z,0
2017-07-19T20:08:53.500Z,0
2017-07-19T20:11:18.490Z,0
2017-07-19T20:13:43.554Z,0
2017-07-19T20:16:09.042Z,0
2017-07-19T20:18:34.091Z,0
2017-07-19T20:20:59.046Z,0
2017-07-19T20:25:25.675Z,0
2017-07-19T20:27:50.721Z,0
2017-07-19T20:30:18.878Z,0
2017-07-19T20:32:44.997Z,0
2017-07-19T20:35:09.964Z,0
2017-07-19T20:37:34.980Z,0
2017-07-19T20:39:59.930Z,0
2017-07-19T20:42:24.914Z,0
2017-07-19T20:44:49.865Z,0
2017-07-19T20:47:14.878Z,0
2017-07-19T20:49:39.978Z,0
2017-07-19T20:52:04.991Z,0
2017-07-19T20:54:30.103Z,0
2017-07-19T20:59:05.820Z,0
2017-07-19T21:01:30.858Z,0
2017-07-19T21:03:55.837Z,0
2017-07-19T21:06:20.809Z,0
2017-07-19T21:08:46.134Z,0
2017-07-19T21:11:11.032Z,0
2017-07-19T21:13:27.495Z,0
2017-07-19T21:15:52.427Z,0
2017-07-19T21:18:17.377Z,0
2017-07-19T21:20:42.337Z,0
2017-07-19T21:23:07.241Z,0
2017-07-19T21:25:32.188Z,0
2017-07-19T21:27:57.208Z,0
2017-07-19T21:30:22.198Z,0
2017-07-19T21:32:47.246Z,0
2017-07-19T21:35:12.224Z,0
2017-07-19T21:37:37.214Z,0
2017-07-19T21:42:04.647Z,0
2017-07-19T21:44:29.595Z,0
2017-07-19T21:46:54.517Z,0
2017-07-19T21:49:11.015Z,0
2017-07-19T21:51:35.905Z,0
2017-07-19T21:54:00.852Z,0
2017-07-19T21:56:25.799Z,0
2017-07-19T21:58:50.846Z,0
2017-07-19T22:01:15.808Z,0
2017-07-19T22:03:40.789Z,0
2017-07-19T22:06:05.799Z,0
2017-07-19T22:08:30.789Z,0
2017-07-19T22:10:55.693Z,0
2017-07-19T22:13:20.579Z,0
2017-07-19T22:15:36.977Z,0
2017-07-19T22:18:01.880Z,0
2017-07-19T22:20:26.784Z,0
2017-07-19T22:22:51.664Z,0
2017-07-19T22:25:17.505Z,0
2017-07-19T22:27:42.398Z,0
2017-07-19T22:30:07.302Z,0
2017-07-19T22:32:23.611Z,0
2017-07-19T22:34:31.520Z,0
2017-07-19T22:36:56.292Z,0
2017-07-19T22:39:21.095Z,0
2017-07-19T22:41:45.876Z,0
2017-07-19T22:44:10.677Z,0
2017-07-19T22:46:35.487Z,0
2017-07-19T22:49:00.282Z,0
2017-07-19T22:51:25.087Z,0
2017-07-19T22:53:32.993Z,0
2017-07-19T22:57:42.368Z,0
2017-07-19T23:00:07.084Z,0
2017-07-19T23:02:31.829Z,0
2017-07-19T23:04:56.526Z,0
2017-07-19T23:07:12.723Z,0
2017-07-19T23:09:37.521Z,0
2017-07-19T23:11:53.831Z,0
2017-07-19T23:14:01.664Z,0
2017-07-19T23:16:26.412Z,0
2017-07-19T23:18:51.200Z,0
2017-07-19T23:21:16.010Z,0
2017-07-19T23:23:40.825Z,0
2017-07-19T23:25:57.118Z,0
2017-07-19T23:28:21.903Z,0
2017-07-19T23:30:46.613Z,0
2017-07-19T23:33:11.314Z,0
2017-07-19T23:35:36.094Z,0
2017-07-19T23:38:00.896Z,0
2017-07-19T23:40:25.683Z,0
2017-07-19T23:42:50.500Z,0
2017-07-19T23:45:15.307Z,0
2017-07-19T23:47:40.093Z,0
2017-07-19T23:50:04.880Z,0
2017-07-19T23:52:29.692Z,0
2017-07-19T23:54:54.478Z,0
2017-07-19T23:59:29.321Z,0
